Time;durP1;ratioP1;P1;durP2;ratioP2;P2;SDS_P1;SDS_P2;PMS_P1;PMS_P2;Temp;Humidity;BMP_temperature;BMP_pressure;BME280_temperature;BME280_humidity;BME280_pressure;Samples;Min_cycle;Max_cycle;Signal;HPM_P1;HPM_P2
2022/12/15 00:39:11;;;;;;;10.63;7.30;;;1.40;68.80;;;;;;5027566;28;20083;-51
2022/12/15 00:41:37;;;;;;;9.63;7.57;;;1.40;68.80;;;;;;5029060;28;20398;-55
2022/12/15 00:44:03;;;;;;;9.93;7.28;;;1.40;68.70;;;;;;5036772;28;20024;-55
2022/12/15 01:22:02;;;;;;;12.00;8.43;;;1.50;68.70;;;;;;5028925;28;20053;-53
2022/12/15 01:24:27;;;;;;;11.57;7.78;;;1.50;68.70;;;;;;5035469;28;20033;-54
2022/12/15 01:26:53;;;;;;;12.50;9.27;;;1.50;68.70;;;;;;5031022;28;20029;-55
2022/12/15 01:29:18;;;;;;;13.48;9.52;;;1.50;68.70;;;;;;5033980;28;20022;-55
2022/12/15 01:31:44;;;;;;;13.48;9.88;;;1.40;68.60;;;;;;5040216;28;20103;-50
2022/12/15 01:34:10;;;;;;;11.95;8.75;;;1.40;68.70;;;;;;5037299;28;20059;-53
2022/12/15 01:36:36;;;;;;;10.68;8.63;;;1.40;68.80;;;;;;5035399;28;20037;-51
2022/12/15 01:39:01;;;;;;;11.20;8.98;;;1.30;68.90;;;;;;5049389;28;20017;-51
2022/12/15 01:41:28;;;;;;;12.43;8.05;;;1.30;69.00;;;;;;5048938;28;20025;-56
2022/12/15 01:43:54;;;;;;;13.40;9.15;;;1.30;69.10;;;;;;5048796;28;20029;-56
2022/12/15 01:46:22;;;;;;;13.25;9.40;;;1.30;69.20;;;;;;5041899;28;20053;-59
2022/12/15 01:48:58;;;;;;;10.70;8.05;;;1.30;69.20;;;;;;5035428;28;20063;-60
2022/12/15 01:51:38;;;;;;;12.48;9.20;;;1.30;69.20;;;;;;5051136;28;20111;-57
2022/12/15 01:54:10;;;;;;;14.60;9.95;;;1.30;69.10;;;;;;5032912;28;20053;-57
2022/12/15 01:56:49;;;;;;;10.77;8.50;;;1.30;69.90;;;;;;5044653;28;20029;-49
2022/12/15 01:59:26;;;;;;;9.88;7.57;;;1.30;69.30;;;;;;5034130;28;20539;-49
2022/12/15 02:01:51;;;;;;;10.00;7.53;;;1.30;69.30;;;;;;5035648;28;20092;-67
2022/12/15 02:04:19;;;;;;;9.35;7.03;;;1.30;69.40;;;;;;5034342;28;20029;-68
2022/12/15 02:06:45;;;;;;;9.70;7.82;;;1.30;69.40;;;;;;5049009;28;20060;-60
2022/12/15 02:09:11;;;;;;;10.70;7.78;;;1.30;69.40;;;;;;5051272;28;20068;-59
2022/12/15 02:11:45;;;;;;;10.70;8.23;;;1.30;69.20;;;;;;5039287;28;20025;-53
2022/12/15 02:14:19;;;;;;;9.75;7.10;;;1.30;69.20;;;;;;5033924;28;20073;-52
2022/12/15 02:17:00;;;;;;;11.45;8.38;;;1.30;69.20;;;;;;5037374;28;20021;-53
2022/12/15 02:19:40;;;;;;;11.93;8.13;;;1.30;69.20;;;;;;5036685;28;20018;-52
2022/12/15 02:22:06;;;;;;;10.35;8.05;;;1.30;69.20;;;;;;5033059;28;20079;-59
2022/12/15 02:24:34;;;;;;;11.60;8.20;;;1.30;69.00;;;;;;5047306;28;20021;-60
2022/12/15 02:27:34;;;;;;;13.30;9.40;;;1.30;68.90;;;;;;5045695;28;20063;-56
2022/12/15 02:30:05;;;;;;;11.18;8.25;;;1.30;69.00;;;;;;5024827;28;20048;-56
2022/12/15 02:32:42;;;;;;;10.30;7.65;;;1.30;69.00;;;;;;5049032;28;20021;-66
2022/12/15 02:35:46;;;;;;;9.68;7.75;;;1.30;69.10;;;;;;5045582;28;20116;-67
2022/12/15 02:38:12;;;;;;;11.00;8.05;;;1.30;69.00;;;;;;5032622;28;20036;-61
2022/12/15 02:40:38;;;;;;;8.68;7.43;;;1.30;69.10;;;;;;5046137;28;20047;-50
2022/12/15 02:43:06;;;;;;;9.82;7.35;;;1.30;69.00;;;;;;5031797;28;20031;-54
2022/12/15 02:45:43;;;;;;;9.85;7.47;;;1.40;69.10;;;;;;5042408;28;20053;-57
2022/12/15 02:48:10;;;;;;;10.93;7.80;;;1.40;68.90;;;;;;5038636;28;20135;-56
2022/12/15 02:50:59;;;;;;;11.63;8.30;;;1.40;68.90;;;;;;5046689;28;20067;-67
2022/12/15 02:53:34;;;;;;;10.23;8.07;;;1.40;68.70;;;;;;5044486;28;20453;-68
2022/12/15 02:56:11;;;;;;;10.82;7.75;;;1.40;68.90;;;;;;5051807;28;20028;-59
2022/12/15 02:59:06;;;;;;;9.35;7.50;;;1.30;69.10;;;;;;5052539;28;20025;-59
2022/12/15 03:01:38;;;;;;;9.73;7.60;;;1.30;69.20;;;;;;5045435;28;20052;-56
2022/12/15 03:04:07;;;;;;;10.50;7.05;;;1.30;69.20;;;;;;5039733;28;20067;-56
2022/12/15 03:06:32;;;;;;;11.27;7.32;;;1.30;69.30;;;;;;5034579;28;20080;-57
2022/12/15 03:08:58;;;;;;;11.10;6.75;;;1.40;69.50;;;;;;5034629;28;20376;-57
2022/12/15 03:11:24;;;;;;;10.13;6.75;;;1.40;69.40;;;;;;5034178;28;20068;-56
2022/12/15 03:13:50;;;;;;;9.82;6.70;;;1.50;69.50;;;;;;5038117;28;20060;-56
2022/12/15 03:16:16;;;;;;;8.25;6.25;;;1.50;69.50;;;;;;5038799;28;20037;-57
2022/12/15 03:18:42;;;;;;;9.15;6.85;;;1.60;69.50;;;;;;5036773;28;20033;-54
2022/12/15 03:21:07;;;;;;;9.60;6.60;;;1.70;69.50;;;;;;5025077;28;20109;-59
2022/12/15 03:23:33;;;;;;;7.90;5.65;;;1.70;69.40;;;;;;5027959;28;20017;-59
2022/12/15 03:25:59;;;;;;;8.98;6.72;;;1.70;69.40;;;;;;5027260;28;20472;-59
2022/12/15 03:28:24;;;;;;;10.02;7.03;;;1.70;69.30;;;;;;5040545;28;20416;-60
2022/12/15 03:30:50;;;;;;;8.50;6.80;;;1.70;69.30;;;;;;5042731;28;20480;-59
2022/12/15 03:33:15;;;;;;;8.88;7.03;;;1.70;69.20;;;;;;5031038;28;20030;-58
2022/12/15 03:35:41;;;;;;;9.57;7.07;;;1.70;69.20;;;;;;5033643;28;20029;-60
2022/12/15 03:38:07;;;;;;;10.90;7.38;;;1.70;69.30;;;;;;5022830;28;20022;-59
2022/12/15 03:40:32;;;;;;;9.25;7.45;;;1.70;69.40;;;;;;5034845;28;20112;-60
2022/12/15 03:42:58;;;;;;;10.20;7.45;;;1.70;69.50;;;;;;5032963;28;20030;-59
2022/12/15 03:45:26;;;;;;;11.75;8.57;;;1.70;69.40;;;;;;5025414;28;20426;-60
2022/12/15 03:47:53;;;;;;;9.98;7.82;;;1.70;69.40;;;;;;5033022;28;20029;-60
2022/12/15 03:50:23;;;;;;;9.55;7.15;;;1.70;69.50;;;;;;5035729;28;20533;-60
2022/12/15 03:52:55;;;;;;;9.88;6.88;;;1.70;69.60;;;;;;5035773;28;20025;-59
2022/12/15 03:55:21;;;;;;;11.70;8.30;;;1.60;69.70;;;;;;5038085;28;20246;-57
2022/12/15 03:57:47;;;;;;;10.13;7.43;;;1.70;69.90;;;;;;5031088;28;20077;-60
2022/12/15 04:00:14;;;;;;;11.75;7.80;;;1.70;69.80;;;;;;5032353;28;20051;-58
2022/12/15 04:02:41;;;;;;;9.80;7.60;;;1.70;70.50;;;;;;5042524;28;20021;-60
2022/12/15 04:07:15;;;;;;;9.80;7.70;;;1.60;69.50;;;;;;5060727;28;20441;-67
2022/12/15 04:09:41;;;;;;;11.00;7.63;;;1.70;70.00;;;;;;5045127;28;20037;-67
2022/12/15 04:12:09;;;;;;;9.98;7.25;;;1.70;70.00;;;;;;5039427;28;20029;-55
2022/12/15 04:14:35;;;;;;;11.48;7.55;;;1.60;70.00;;;;;;5037355;28;20091;-57
2022/12/15 04:17:01;;;;;;;9.00;7.00;;;1.70;70.20;;;;;;5047496;28;20033;-56
2022/12/15 04:22:11;;;;;;;9.85;7.25;;;1.70;70.30;;;;;;5041479;28;20494;-56
2022/12/15 05:33:12;;;;;;;12.32;8.60;;;1.60;74.40;;;;;;5032447;28;20072;-56
2022/12/15 05:35:38;;;;;;;12.38;8.90;;;1.60;74.60;;;;;;5032011;28;20033;-54
2022/12/15 05:38:04;;;;;;;10.88;7.85;;;1.60;74.80;;;;;;5028278;28;20029;-56
2022/12/15 05:40:30;;;;;;;13.68;9.32;;;1.50;75.00;;;;;;5031961;28;20105;-57
2022/12/15 05:42:59;;;;;;;12.30;9.43;;;1.50;75.20;;;;;;5027683;28;20124;-56
2022/12/15 05:45:26;;;;;;;11.50;8.10;;;1.50;75.40;;;;;;5034092;28;20195;-57
2022/12/15 05:47:53;;;;;;;12.27;9.10;;;1.50;75.50;;;;;;5033121;28;20519;-56
2022/12/15 05:50:20;;;;;;;12.88;9.18;;;1.50;75.70;;;;;;5033930;28;20021;-56
2022/12/15 05:52:45;;;;;;;13.07;9.50;;;1.50;75.70;;;;;;5036067;28;20037;-55
2022/12/15 05:55:11;;;;;;;12.35;9.18;;;1.50;75.70;;;;;;5027025;28;20041;-56
2022/12/15 05:57:37;;;;;;;13.23;9.40;;;1.50;75.80;;;;;;5030651;28;20141;-55
2022/12/15 06:00:04;;;;;;;13.40;9.60;;;1.60;75.90;;;;;;5028372;28;20083;-57
2022/12/15 06:02:30;;;;;;;15.18;10.93;;;1.60;75.90;;;;;;5035654;28;20021;-59
2022/12/15 06:04:56;;;;;;;13.77;9.82;;;1.70;75.90;;;;;;5032643;28;20028;-61
2022/12/15 06:07:22;;;;;;;15.05;10.55;;;1.70;75.80;;;;;;5031791;28;20083;-60
2022/12/15 06:09:47;;;;;;;11.82;8.73;;;1.70;75.70;;;;;;5028141;28;20516;-59
2022/12/15 06:12:13;;;;;;;13.82;9.43;;;1.70;75.80;;;;;;5030863;28;20120;-60
2022/12/15 06:14:39;;;;;;;13.77;10.30;;;1.80;75.70;;;;;;5036786;28;20033;-60
2022/12/15 06:17:04;;;;;;;14.48;10.73;;;1.80;76.50;;;;;;5038731;28;20136;-61
2022/12/15 06:19:30;;;;;;;13.27;9.38;;;1.70;76.10;;;;;;5026224;28;20064;-60
2022/12/15 06:21:55;;;;;;;13.23;9.90;;;1.70;76.20;;;;;;5032942;28;20030;-60
2022/12/15 06:24:21;;;;;;;12.95;9.25;;;1.70;76.30;;;;;;5037651;28;20044;-60
2022/12/15 06:26:47;;;;;;;12.52;9.60;;;1.70;76.30;;;;;;5031870;28;20033;-61
2022/12/15 06:29:13;;;;;;;12.13;9.13;;;1.70;76.50;;;;;;5027769;28;20037;-61
2022/12/15 06:31:39;;;;;;;14.20;10.05;;;1.70;76.60;;;;;;5032288;28;20033;-61
2022/12/15 06:34:07;;;;;;;17.13;11.00;;;1.70;76.50;;;;;;5042324;28;23613;-60
2022/12/15 06:36:33;;;;;;;16.70;11.18;;;1.80;76.50;;;;;;5035662;28;20472;-59
2022/12/15 06:39:03;;;;;;;16.35;10.82;;;1.80;76.50;;;;;;5022928;28;20070;-60
2022/12/15 06:41:30;;;;;;;15.25;10.82;;;1.70;76.40;;;;;;5025886;28;20522;-60
2022/12/15 06:43:56;;;;;;;13.68;9.15;;;1.80;76.80;;;;;;5027806;28;20038;-60
2022/12/15 06:46:23;;;;;;;11.20;8.45;;;1.70;76.60;;;;;;5023109;28;20048;-59
2022/12/15 06:48:50;;;;;;;11.75;9.18;;;1.70;76.60;;;;;;5022762;28;20100;-60
2022/12/15 06:51:16;;;;;;;11.95;8.75;;;1.80;76.70;;;;;;5027845;28;20040;-60
2022/12/15 06:53:52;;;;;;;11.07;8.82;;;1.80;76.70;;;;;;5022404;28;20195;-59
2022/12/15 06:56:38;;;;;;;12.38;8.85;;;1.80;76.80;;;;;;5019308;28;20046;-59
2022/12/15 06:59:06;;;;;;;12.65;9.30;;;1.80;76.90;;;;;;5021895;28;20045;-59
2022/12/15 07:01:33;;;;;;;13.68;9.70;;;1.80;77.00;;;;;;5021666;28;20163;-61
2022/12/15 07:04:00;;;;;;;11.50;8.55;;;1.80;77.00;;;;;;5021414;28;20036;-61
2022/12/15 07:06:26;;;;;;;12.73;9.45;;;1.80;77.10;;;;;;5015675;28;20050;-58
2022/12/15 07:08:53;;;;;;;13.60;9.13;;;1.80;77.20;;;;;;5024783;28;20452;-60
2022/12/15 07:11:20;;;;;;;12.70;9.07;;;1.80;77.40;;;;;;5026482;28;20489;-60
2022/12/15 07:13:50;;;;;;;9.82;7.55;;;1.80;77.50;;;;;;5025385;28;20638;-61
2022/12/15 07:16:16;;;;;;;10.10;7.38;;;1.80;77.60;;;;;;5014843;28;20036;-60
2022/12/15 07:18:41;;;;;;;12.07;7.72;;;1.80;77.60;;;;;;5015490;28;20041;-61
2022/12/15 07:21:09;;;;;;;10.93;8.15;;;1.80;77.60;;;;;;5021174;28;20030;-58
2022/12/15 07:23:35;;;;;;;11.70;8.18;;;1.80;77.60;;;;;;5012544;28;20100;-57
2022/12/15 07:26:03;;;;;;;10.60;8.43;;;1.80;77.60;;;;;;5014163;28;20172;-56
2022/12/15 07:28:29;;;;;;;11.18;8.27;;;1.90;77.70;;;;;;5022114;28;20033;-57
2022/12/15 07:30:59;;;;;;;10.38;8.40;;;1.90;77.70;;;;;;5024079;28;20029;-56
2022/12/15 07:33:25;;;;;;;10.60;8.63;;;1.90;77.70;;;;;;5013073;28;20774;-56
2022/12/15 07:35:54;;;;;;;11.77;9.45;;;1.90;77.60;;;;;;5018026;28;20044;-57
2022/12/15 07:38:20;;;;;;;11.60;8.30;;;2.00;77.60;;;;;;5012773;28;20042;-55
2022/12/15 07:40:45;;;;;;;12.57;9.10;;;2.00;77.50;;;;;;5016252;28;20041;-57
2022/12/15 07:43:11;;;;;;;10.15;7.95;;;2.00;77.50;;;;;;5015956;28;20166;-53
2022/12/15 07:45:37;;;;;;;11.38;8.10;;;1.90;77.60;;;;;;5016278;28;20495;-56
2022/12/15 07:48:02;;;;;;;10.65;7.65;;;1.90;77.50;;;;;;5016296;28;20025;-56
2022/12/15 07:50:28;;;;;;;11.15;8.00;;;1.90;77.80;;;;;;5009774;28;20032;-56
2022/12/15 07:52:54;;;;;;;10.95;7.55;;;1.90;77.90;;;;;;5017160;28;21155;-56
2022/12/15 07:55:20;;;;;;;9.15;7.18;;;2.00;77.90;;;;;;5022827;28;20033;-57
2022/12/15 07:57:48;;;;;;;10.93;7.28;;;2.00;77.90;;;;;;5017643;28;20033;-56
2022/12/15 08:00:14;;;;;;;9.48;7.05;;;2.10;78.00;;;;;;5019371;28;20041;-57
2022/12/15 08:02:41;;;;;;;10.13;7.40;;;2.10;78.00;;;;;;5015748;28;20033;-56
2022/12/15 08:05:08;;;;;;;9.18;6.85;;;2.10;77.80;;;;;;5012553;28;20159;-57
2022/12/15 08:07:34;;;;;;;10.95;7.13;;;2.10;77.60;;;;;;5010727;28;20124;-55
2022/12/15 08:10:00;;;;;;;9.88;6.95;;;2.20;77.80;;;;;;5018446;28;20440;-56
2022/12/15 08:12:27;;;;;;;9.77;6.53;;;2.20;77.60;;;;;;5007111;28;20064;-56
2022/12/15 08:14:52;;;;;;;9.65;7.18;;;2.30;77.50;;;;;;5010194;28;20053;-56
2022/12/15 08:17:19;;;;;;;10.43;7.22;;;2.30;77.70;;;;;;5010515;28;20033;-56
2022/12/15 08:19:45;;;;;;;9.68;7.05;;;2.30;77.60;;;;;;5033729;28;20349;-57
2022/12/15 08:22:11;;;;;;;10.63;7.97;;;2.40;77.70;;;;;;5011185;28;20045;-56
2022/12/15 08:24:36;;;;;;;11.98;8.35;;;2.40;77.70;;;;;;5010830;28;20025;-56
2022/12/15 08:27:02;;;;;;;14.23;9.18;;;2.40;77.70;;;;;;5014115;28;20065;-56
2022/12/15 08:29:28;;;;;;;12.95;8.63;;;2.40;77.70;;;;;;5010678;28;20667;-57
2022/12/15 08:31:53;;;;;;;12.10;8.80;;;2.40;77.80;;;;;;4999937;28;20037;-57
2022/12/15 08:34:19;;;;;;;11.45;7.65;;;2.40;77.90;;;;;;5005480;28;20026;-57
2022/12/15 08:36:45;;;;;;;9.77;7.47;;;2.50;78.00;;;;;;5006268;28;20041;-52
2022/12/15 08:39:13;;;;;;;11.95;8.95;;;2.50;78.10;;;;;;4985023;28;22430;-56
2022/12/15 08:41:40;;;;;;;10.57;7.95;;;2.60;78.80;;;;;;4997165;28;20065;-58
2022/12/15 08:44:05;;;;;;;11.48;8.65;;;2.70;78.10;;;;;;5008477;28;20038;-55
2022/12/15 08:46:33;;;;;;;11.05;7.72;;;2.70;78.00;;;;;;4996633;28;20186;-55
2022/12/15 08:48:59;;;;;;;11.45;8.20;;;2.70;78.10;;;;;;4988848;28;20109;-56
2022/12/15 08:51:27;;;;;;;12.02;8.40;;;2.80;77.90;;;;;;4983703;28;20041;-55
2022/12/15 08:53:53;;;;;;;11.02;7.78;;;2.80;78.00;;;;;;4996797;28;20048;-56
2022/12/15 08:56:21;;;;;;;11.35;7.88;;;2.80;78.00;;;;;;5002510;28;20038;-55
2022/12/15 08:58:48;;;;;;;12.23;7.80;;;2.90;78.10;;;;;;4993351;28;20024;-56
2022/12/15 09:01:19;;;;;;;10.73;7.28;;;2.90;78.10;;;;;;4986021;28;20044;-52
2022/12/15 09:03:45;;;;;;;11.43;7.90;;;3.00;78.30;;;;;;5003230;28;20060;-54
2022/12/15 09:06:15;;;;;;;8.95;7.25;;;3.10;78.30;;;;;;5000380;28;20052;-50
2022/12/15 09:08:41;;;;;;;9.15;7.10;;;3.10;78.00;;;;;;4984576;28;21772;-56
2022/12/15 09:11:07;;;;;;;10.55;7.10;;;3.10;77.80;;;;;;4988608;28;20114;-54
2022/12/15 09:13:33;;;;;;;9.40;6.72;;;3.10;77.90;;;;;;4991524;28;20033;-54
2022/12/15 09:16:12;;;;;;;9.48;7.18;;;3.20;78.00;;;;;;5000360;28;20719;-54
2022/12/15 09:18:39;;;;;;;10.88;7.32;;;3.20;77.70;;;;;;5004230;28;20044;-55
2022/12/15 09:21:07;;;;;;;10.40;7.03;;;3.30;77.70;;;;;;5000397;28;20046;-54
2022/12/15 09:23:33;;;;;;;9.40;7.35;;;3.30;77.80;;;;;;4985414;28;20438;-54
2022/12/15 09:26:08;;;;;;;9.27;6.80;;;3.30;77.70;;;;;;4983436;28;20563;-55
2022/12/15 09:28:34;;;;;;;10.52;7.30;;;3.40;77.60;;;;;;5001203;28;20922;-54
2022/12/15 09:31:09;;;;;;;10.35;6.90;;;3.40;77.60;;;;;;4979654;28;21197;-56
2022/12/15 09:33:36;;;;;;;8.77;6.72;;;3.40;77.50;;;;;;4993740;28;20128;-50
2022/12/15 09:36:03;;;;;;;8.60;6.75;;;3.50;77.40;;;;;;4993503;28;20123;-55
2022/12/15 09:38:32;;;;;;;9.63;7.15;;;3.50;77.20;;;;;;4983952;28;20029;-52
2022/12/15 09:41:26;;;;;;;8.00;6.15;;;3.50;77.00;;;;;;4996230;28;20037;-53
2022/12/15 09:44:02;;;;;;;7.75;6.03;;;3.50;77.20;;;;;;4993188;28;20033;-52
2022/12/15 09:47:04;;;;;;;10.90;8.13;;;3.60;77.80;;;;;;4999010;28;20060;-56
2022/12/15 09:49:53;;;;;;;9.38;6.65;;;3.60;77.00;;;;;;4984861;28;20030;-57
2022/12/15 09:52:33;;;;;;;9.10;6.45;;;3.60;76.70;;;;;;4997285;28;20029;-55
2022/12/15 09:55:00;;;;;;;10.32;7.40;;;3.60;76.60;;;;;;5005684;28;20044;-56
2022/12/15 09:57:35;;;;;;;10.07;7.32;;;3.70;76.60;;;;;;5006361;28;20100;-53
2022/12/15 10:00:20;;;;;;;10.95;7.38;;;3.70;76.40;;;;;;5002944;28;20042;-54
2022/12/15 10:03:00;;;;;;;11.35;7.30;;;3.70;76.30;;;;;;4994225;28;20136;-54
2022/12/15 10:07:40;;;;;;;11.70;7.50;;;3.70;75.70;;;;;;5061651;27;20413;-56
2022/12/15 10:10:14;;;;;;;10.05;7.50;;;3.70;76.00;;;;;;5050168;28;20041;-55
2022/12/15 10:12:42;;;;;;;10.45;7.80;;;3.70;75.70;;;;;;5060155;28;20047;-55
2022/12/15 10:15:25;;;;;;;10.55;7.72;;;3.70;75.70;;;;;;5047995;28;20425;-55
2022/12/15 10:17:55;;;;;;;10.25;7.15;;;3.70;75.60;;;;;;5049828;28;20265;-55
2022/12/15 10:20:25;;;;;;;9.00;6.60;;;3.70;75.50;;;;;;5050320;28;20039;-53
2022/12/15 10:22:52;;;;;;;11.68;7.63;;;3.70;75.50;;;;;;5047478;28;20395;-55
2022/12/15 10:25:28;;;;;;;9.38;6.90;;;3.70;76.00;;;;;;5056378;28;20675;-56
2022/12/15 10:28:12;;;;;;;8.20;6.40;;;3.80;75.10;;;;;;5033929;28;20028;-54
2022/12/15 10:31:01;;;;;;;9.88;7.22;;;3.80;75.00;;;;;;5036965;28;20067;-54
2022/12/15 10:33:38;;;;;;;8.70;6.75;;;3.80;74.80;;;;;;5047423;28;20093;-55
2022/12/15 10:36:15;;;;;;;9.90;6.90;;;3.90;74.60;;;;;;5044294;28;20909;-56
2022/12/15 10:38:46;;;;;;;8.02;6.40;;;4.00;74.60;;;;;;5044800;28;20036;-57
2022/12/15 10:41:24;;;;;;;8.68;6.28;;;4.00;74.60;;;;;;5045530;28;20055;-54
2022/12/15 10:43:52;;;;;;;9.10;7.15;;;4.10;74.40;;;;;;5043319;28;20052;-57
2022/12/15 10:46:24;;;;;;;9.77;6.70;;;4.20;74.40;;;;;;5033135;28;20129;-54
2022/12/15 10:49:11;;;;;;;9.18;6.88;;;4.20;74.20;;;;;;5043591;28;20032;-55
2022/12/15 10:52:06;;;;;;;8.65;6.53;;;4.30;74.10;;;;;;5048270;28;20044;-56
2022/12/15 10:54:44;;;;;;;8.00;6.13;;;4.40;73.90;;;;;;5038074;28;21100;-55
2022/12/15 10:57:29;;;;;;;7.75;6.10;;;4.40;73.70;;;;;;5037328;28;20035;-56
2022/12/15 11:00:15;;;;;;;7.72;6.18;;;4.50;73.50;;;;;;5047205;28;20028;-54
2022/12/15 11:02:41;;;;;;;8.63;6.00;;;4.60;73.20;;;;;;5035233;28;20041;-56
2022/12/15 11:05:16;;;;;;;9.38;6.53;;;4.60;73.10;;;;;;5050433;28;20095;-52
2022/12/15 11:08:13;;;;;;;9.10;6.45;;;4.70;72.80;;;;;;5045439;28;21067;-54
2022/12/15 11:14:04;;;;;;;8.63;6.30;;;4.60;72.50;;;;;;5039607;28;20043;-55
2022/12/15 11:16:31;;;;;;;8.27;6.35;;;4.60;72.40;;;;;;5041875;28;21386;-56
2022/12/15 11:19:13;;;;;;;8.57;6.90;;;4.60;72.50;;;;;;5031640;28;20037;-56
2022/12/15 11:21:43;;;;;;;9.25;6.05;;;4.60;73.30;;;;;;5031628;28;20724;-55
2022/12/15 11:24:38;;;;;;;9.50;7.30;;;4.70;72.70;;;;;;5029769;28;20118;-55
2022/12/15 11:27:35;;;;;;;12.27;8.25;;;4.70;72.60;;;;;;5041846;28;20613;-56
2022/12/15 11:30:12;;;;;;;11.43;8.18;;;4.80;72.40;;;;;;5006799;28;20135;-55
2022/12/15 11:32:43;;;;;;;10.15;7.72;;;4.70;72.20;;;;;;5038323;28;20052;-55
2022/12/15 11:35:14;;;;;;;12.60;8.93;;;4.70;72.10;;;;;;5037401;28;20070;-54
2022/12/15 11:37:44;;;;;;;12.05;9.15;;;4.70;72.20;;;;;;5036658;28;20037;-55
2022/12/15 11:40:16;;;;;;;13.00;9.45;;;4.70;72.10;;;;;;5035281;28;20056;-55
2022/12/15 11:43:03;;;;;;;12.48;9.40;;;4.70;72.00;;;;;;5031961;28;20029;-54
2022/12/15 11:45:51;;;;;;;12.05;10.00;;;4.70;72.00;;;;;;5033126;28;20036;-52
2022/12/15 11:48:29;;;;;;;12.18;8.52;;;4.70;71.80;;;;;;5031347;28;20701;-56
2022/12/15 11:51:03;;;;;;;12.15;9.32;;;4.70;71.90;;;;;;5034526;28;20039;-55
2022/12/15 11:53:43;;;;;;;13.50;10.05;;;4.70;72.00;;;;;;5034513;28;23178;-54
2022/12/15 11:56:46;;;;;;;13.65;9.77;;;4.70;72.00;;;;;;5031392;28;20036;-54
2022/12/15 11:59:30;;;;;;;11.35;9.27;;;4.70;72.00;;;;;;5037180;28;20719;-57
2022/12/15 12:02:13;;;;;;;12.68;9.25;;;4.70;71.90;;;;;;5038997;28;20028;-57
2022/12/15 12:04:57;;;;;;;12.23;9.77;;;4.70;71.90;;;;;;5043252;28;20037;-55
2022/12/15 12:07:26;;;;;;;14.57;11.13;;;4.70;71.80;;;;;;5026019;28;20122;-53
2022/12/15 12:09:55;;;;;;;12.68;9.77;;;4.70;71.80;;;;;;5017272;28;20051;-55
2022/12/15 12:12:25;;;;;;;14.20;10.57;;;4.70;71.80;;;;;;5023182;28;20660;-55
2022/12/15 12:15:00;;;;;;;11.65;9.18;;;4.70;71.80;;;;;;5017923;28;20037;-53
2022/12/15 12:17:46;;;;;;;10.65;8.65;;;4.70;71.70;;;;;;5018135;28;20033;-56
2022/12/15 12:20:33;;;;;;;12.45;9.05;;;4.70;71.60;;;;;;5013066;28;20189;-56
2022/12/15 12:23:15;;;;;;;13.32;9.57;;;4.70;71.70;;;;;;5011549;28;20021;-55
2022/12/15 12:25:46;;;;;;;11.02;8.40;;;4.80;71.70;;;;;;5022430;28;20033;-56
2022/12/15 12:28:21;;;;;;;11.30;8.65;;;4.70;71.70;;;;;;5014898;28;21134;-55
2022/12/15 12:30:49;;;;;;;12.98;10.38;;;4.70;71.70;;;;;;5015836;28;20033;-56
2022/12/15 12:33:37;;;;;;;15.40;12.20;;;4.70;71.70;;;;;;5021486;28;20044;-56
2022/12/15 12:36:12;;;;;;;16.83;12.30;;;4.80;71.80;;;;;;5016524;28;20148;-55
2022/12/15 12:38:45;;;;;;;16.45;12.27;;;4.70;71.50;;;;;;5020219;28;20029;-57
2022/12/15 12:41:41;;;;;;;16.75;12.80;;;4.70;71.70;;;;;;5018537;28;20033;-55
2022/12/15 12:44:27;;;;;;;15.05;12.18;;;4.70;71.70;;;;;;4996315;28;20052;-56
2022/12/15 12:46:56;;;;;;;15.15;11.88;;;4.70;71.90;;;;;;5009614;28;20044;-55
2022/12/15 12:49:29;;;;;;;14.20;10.27;;;4.70;71.90;;;;;;5017433;28;20223;-54
2022/12/15 12:51:58;;;;;;;13.40;11.18;;;4.70;71.90;;;;;;5025008;28;20089;-55
2022/12/15 12:54:33;;;;;;;15.43;11.88;;;4.80;72.00;;;;;;5019443;28;20071;-54
2022/12/15 12:57:00;;;;;;;13.15;10.55;;;4.80;71.90;;;;;;5004378;28;20048;-55
2022/12/15 12:59:28;;;;;;;13.63;10.15;;;4.70;71.90;;;;;;5005387;28;20063;-55
2022/12/15 13:01:55;;;;;;;13.77;10.63;;;4.80;72.10;;;;;;5009822;28;20053;-53
2022/12/15 13:04:32;;;;;;;14.52;10.63;;;4.80;72.10;;;;;;5018721;28;20037;-55
2022/12/15 13:07:24;;;;;;;14.05;10.80;;;4.80;72.00;;;;;;5039857;28;20045;-56
2022/12/15 13:10:03;;;;;;;12.77;9.98;;;4.80;72.10;;;;;;5031637;28;20032;-56
2022/12/15 13:12:33;;;;;;;13.07;10.15;;;4.80;72.10;;;;;;5042439;28;22185;-54
2022/12/15 13:15:02;;;;;;;13.48;9.82;;;4.80;72.20;;;;;;5033269;28;20028;-56
2022/12/15 13:17:37;;;;;;;12.77;8.95;;;4.80;72.20;;;;;;5032507;28;20036;-57
2022/12/15 13:20:17;;;;;;;11.85;9.18;;;4.80;72.50;;;;;;5032772;28;20090;-56
2022/12/15 13:22:43;;;;;;;14.02;10.68;;;4.80;72.50;;;;;;5033349;28;20036;-58
2022/12/15 13:25:32;;;;;;;13.43;10.15;;;4.90;72.30;;;;;;5030582;28;20036;-54
2022/12/15 13:28:00;;;;;;;14.00;10.18;;;4.90;72.30;;;;;;5038459;28;20115;-55
2022/12/15 13:30:26;;;;;;;17.33;12.00;;;4.80;72.30;;;;;;5041094;28;20028;-55
2022/12/15 13:32:53;;;;;;;15.00;10.70;;;4.80;72.30;;;;;;5041154;28;20028;-52
2022/12/15 13:35:30;;;;;;;14.38;10.95;;;4.80;72.40;;;;;;5044498;28;20085;-56
2022/12/15 13:37:58;;;;;;;15.10;10.18;;;4.80;72.50;;;;;;5027990;28;21356;-57
2022/12/15 13:40:24;;;;;;;11.30;9.40;;;4.80;72.60;;;;;;5038352;28;20059;-55
2022/12/15 13:43:28;;;;;;;12.00;9.38;;;4.80;72.60;;;;;;5043923;28;20028;-57
2022/12/15 13:46:09;;;;;;;13.85;8.88;;;4.80;72.70;;;;;;5019649;28;20079;-57
2022/12/15 13:48:46;;;;;;;13.40;9.10;;;4.80;73.00;;;;;;5036302;28;20122;-56
2022/12/15 13:51:31;;;;;;;16.65;11.43;;;4.80;73.00;;;;;;5035137;28;20082;-54
2022/12/15 13:54:14;;;;;;;16.05;11.05;;;4.80;73.10;;;;;;5017030;28;20690;-55
2022/12/15 13:57:01;;;;;;;16.63;11.15;;;4.80;73.00;;;;;;5040254;28;20094;-58
2022/12/15 13:59:37;;;;;;;13.73;10.35;;;4.80;73.00;;;;;;5034943;28;20353;-55
2022/12/15 14:02:21;;;;;;;14.40;10.50;;;4.80;73.30;;;;;;5023904;28;20094;-56
2022/12/15 14:05:11;;;;;;;11.43;8.48;;;4.80;73.50;;;;;;5039119;28;20032;-56
2022/12/15 14:07:39;;;;;;;13.60;8.77;;;4.80;73.50;;;;;;5034733;28;20047;-56
2022/12/15 14:10:21;;;;;;;10.40;7.70;;;4.90;73.60;;;;;;5034692;28;20148;-58
2022/12/15 14:12:48;;;;;;;;;;;4.90;73.70;;;;;;5034238;28;20040;-57
2022/12/15 14:15:15;;;;;;;12.98;8.48;;;4.90;73.60;;;;;;5039285;28;19947;-58
2022/12/15 14:17:47;;;;;;;10.45;8.20;;;5.00;73.60;;;;;;5039057;28;20384;-56
2022/12/15 14:20:19;;;;;;;11.57;7.80;;;5.00;73.50;;;;;;5026457;28;20048;-56
2022/12/15 14:22:44;;;;;;;10.77;7.47;;;5.10;73.60;;;;;;5034045;28;20029;-55
2022/12/15 14:25:21;;;;;;;11.27;7.95;;;5.00;73.50;;;;;;5030373;28;20463;-58
2022/12/15 14:27:48;;;;;;;9.88;7.47;;;5.00;73.60;;;;;;5034893;28;20037;-56
2022/12/15 14:30:28;;;;;;;10.27;7.60;;;5.10;74.40;;;;;;5030364;28;20039;-53
2022/12/15 14:33:05;;;;;;;10.07;6.78;;;5.10;73.70;;;;;;5036430;28;20043;-58
2022/12/15 14:35:37;;;;;;;8.68;7.07;;;5.10;73.80;;;;;;5040512;28;20118;-57
2022/12/15 14:38:06;;;;;;;10.23;7.25;;;5.20;73.90;;;;;;5036363;28;20052;-55
2022/12/15 14:40:36;;;;;;;9.60;7.00;;;5.20;73.90;;;;;;5038567;28;21029;-55
2022/12/15 14:43:03;;;;;;;10.25;7.25;;;5.20;73.80;;;;;;5027827;28;22510;-57
2022/12/15 14:45:31;;;;;;;10.07;7.03;;;5.30;74.00;;;;;;5034419;28;20047;-55
2022/12/15 14:48:05;;;;;;;10.50;7.47;;;5.30;74.00;;;;;;5034042;28;20111;-57
2022/12/15 14:50:32;;;;;;;9.60;7.40;;;5.30;73.80;;;;;;5037257;28;20499;-56
2022/12/15 14:53:05;;;;;;;7.80;5.85;;;5.40;73.90;;;;;;5041326;28;20115;-56
2022/12/15 14:55:36;;;;;;;10.02;7.35;;;5.40;73.90;;;;;;5039872;28;20056;-57
2022/12/15 14:58:21;;;;;;;9.55;7.63;;;5.40;73.90;;;;;;5037735;28;20745;-57
2022/12/15 15:00:50;;;;;;;12.48;7.68;;;5.40;73.90;;;;;;5038891;28;20044;-57
2022/12/15 15:03:21;;;;;;;10.50;7.80;;;5.40;73.90;;;;;;5046764;28;20583;-56
2022/12/15 15:05:48;;;;;;;9.93;7.38;;;5.40;73.80;;;;;;5036903;28;20045;-57
2022/12/15 15:08:33;;;;;;;9.73;7.50;;;5.40;73.90;;;;;;5043792;28;20043;-57
2022/12/15 15:11:03;;;;;;;10.18;7.43;;;5.40;73.80;;;;;;5046605;28;20039;-56
2022/12/15 15:13:38;;;;;;;9.52;6.72;;;5.40;73.90;;;;;;5042827;28;20091;-57
2022/12/15 15:16:06;;;;;;;9.50;7.30;;;5.40;73.90;;;;;;5043085;28;20701;-55
2022/12/15 15:18:32;;;;;;;8.48;6.38;;;5.40;74.00;;;;;;5037610;28;21361;-56
2022/12/15 15:21:02;;;;;;;8.25;6.30;;;5.40;74.10;;;;;;5036836;28;20035;-57
2022/12/15 15:23:29;;;;;;;9.00;6.63;;;5.50;74.10;;;;;;5039560;28;20028;-54
2022/12/15 15:26:05;;;;;;;8.48;6.18;;;5.50;74.40;;;;;;5040014;28;20047;-56
2022/12/15 15:28:42;;;;;;;9.35;6.38;;;5.50;74.50;;;;;;5036438;28;21759;-57
2022/12/15 15:31:31;;;;;;;8.23;6.05;;;5.50;74.50;;;;;;5033772;28;20040;-57
2022/12/15 15:33:57;;;;;;;9.70;7.10;;;5.60;74.60;;;;;;5047661;28;20030;-56
2022/12/15 15:36:32;;;;;;;9.48;6.68;;;5.60;74.60;;;;;;5041184;28;20118;-57
2022/12/15 15:38:59;;;;;;;10.00;6.88;;;5.60;74.50;;;;;;5044220;28;20115;-56
2022/12/15 15:41:30;;;;;;;15.30;12.15;;;5.70;74.70;;;;;;5034866;28;20028;-55
2022/12/15 15:43:58;;;;;;;13.60;9.82;;;5.70;74.60;;;;;;5041206;28;20032;-57